Latest Weather Observations for Lucinda

IDQ60801

Issued at 1:32 pm EST Sunday 29 May 2016 (issued every 30 minutes, with the page automatically refreshed every 10 minutes)

About weather observations | Map of weather stations | Latest weather observations for QLD | Other Formats
Station Details ID: 032141 Name: LUCINDA POINT Lat: -18.52 Lon: 146.39 Height: 10.0 m
Data from the previous 72 hours. | See also: Recent months at Lucinda
Date/Time
EST
Temp
°C
App
Temp
°C
Dew
Point
Rel
Hum
%
Delta-T
°C
Wind Press
QNH
hPa
Press
MSL
hPa
Rain
since 9 am
mm
Dir
 
Spd
km/h
Gust
km/h
Spd
kts
Gust
kts
29/01:30pm 26.9 29.6 20.7 69 4.1 ESE 7 11 4 6 1015.1 1015.1 0.0
29/01:00pm 25.9 28.2 20.7 73 3.4 S 9 11 5 6 1015.3 1015.3 0.0
29/12:30pm 25.5 27.1 20.7 75 3.1 S 13 17 7 9 1015.6 1015.6 0.0
29/12:00pm 25.4 26.9 20.6 75 3.1 S 13 17 7 9 1016.1 1016.1 0.0
29/11:30am 25.5 27.0 20.5 74 3.3 S 13 17 7 9 1016.4 1016.4 0.0
29/11:00am 25.3 26.8 20.5 75 3.1 S 13 17 7 9 1016.5 1016.5 0.0
29/10:30am 25.2 26.8 20.7 76 2.9 SSW 13 17 7 9 1016.6 1016.6 0.0
29/10:00am 24.7 25.7 20.2 76 2.9 SSW 15 20 8 11 1016.9 1016.9 0.0
29/09:30am 24.7 26.1 21.0 80 2.4 SW 15 20 8 11 1017.2 1017.2 0.0
29/09:00am 24.0 24.9 20.9 83 2.0 WSW 17 19 9 10 1017.0 1017.0 0.0
29/08:30am 23.3 24.7 21.0 87 1.5 SW 15 17 8 9 1016.6 1016.6 0.0
29/08:00am 22.7 23.2 20.8 89 1.2 SW 19 20 10 11 1016.5 1016.5 0.0
29/07:30am 22.6 22.9 20.7 89 1.2 WSW 20 22 11 12 1016.2 1016.2 0.0
29/07:00am 22.5 22.6 20.4 88 1.4 WSW 20 22 11 12 1015.9 1015.9 0.0
29/06:30am 22.9 23.4 20.8 88 1.4 WSW 19 20 10 11 1015.5 1015.5 0.0
29/06:00am 22.8 23.2 20.7 88 1.4 WSW 19 20 10 11 1015.0 1015.0 0.0
29/05:30am 22.7 22.8 20.4 87 1.5 WSW 20 22 11 12 1014.6 1014.6 0.0
29/05:00am 22.9 23.7 20.6 87 1.5 WSW 17 17 9 9 1014.3 1014.3 0.0
29/04:30am 22.9 23.7 20.6 87 1.5 WSW 17 20 9 11 1014.5 1014.5 0.0
29/04:00am 23.0 23.7 20.5 86 1.6 SW 17 19 9 10 1014.2 1014.2 0.0
29/03:30am 22.9 24.2 20.2 85 1.7 WSW 13 15 7 8 1014.0 1014.0 0.0
29/03:00am 23.2 24.9 20.9 87 1.5 WSW 13 15 7 8 1014.1 1014.1 0.0
29/02:30am 23.0 24.7 20.9 88 1.4 SW 13 17 7 9 1013.9 1013.9 0.0
29/02:00am 23.1 24.8 21.0 88 1.4 WSW 13 15 7 8 1014.0 1014.0 0.0
29/01:30am 24.3 26.8 22.4 89 1.3 SW 13 15 7 8 1014.2 1014.2 0.0
29/01:00am 24.6 26.2 20.7 79 2.5 SSW 13 15 7 8 1014.1 1014.1 0.0
29/12:30am 24.6 26.1 20.5 78 2.7 SW 13 15 7 8 1014.3 1014.3 0.0
29/12:00am 24.5 26.1 20.8 80 2.4 WSW 13 13 7 7 1014.4 1014.4 0.0
 
Date/Time
EST
Temp
°C
App
Temp
°C
Dew
Point
Rel
Hum
%
Delta-T
°C
Wind Press
QNH
hPa
Press
MSL
hPa
Rain
since 9 am
mm
Dir
 
Spd
km/h
Gust
km/h
Spd
kts
Gust
kts
28/11:30pm 24.8 27.5 21.3 81 2.3 W 9 11 5 6 1014.7 1014.7 0.0
28/11:00pm 25.2 28.3 22.1 83 2.1 W 9 11 5 6 1014.9 1014.9 0.0
28/10:30pm 25.1 28.0 21.0 78 2.7 NW 7 9 4 5 1014.8 1014.8 0.0
28/10:00pm 25.4 28.4 21.3 78 2.7 WNW 7 9 4 5 1015.0 1015.0 0.0
28/09:30pm 25.4 28.5 21.1 77 2.8 NNW 6 7 3 4 1014.8 1014.8 0.0
28/09:00pm 25.5 28.4 21.0 76 3.0 N 7 9 4 5 1014.7 1014.7 0.0
28/08:30pm 25.7 28.5 20.9 75 3.2 N 7 9 4 5 1014.6 1014.6 0.0
28/08:00pm 25.7 27.9 20.5 73 3.4 N 9 13 5 7 1014.5 1014.5 0.0
28/07:30pm 25.9 27.7 21.1 75 3.2 N 13 17 7 9 1014.3 1014.3 0.0
28/07:00pm 25.9 27.4 20.5 72 3.5 N 13 17 7 9 1013.9 1013.9 0.0
28/06:30pm 26.0 27.2 20.6 72 3.5 N 15 19 8 10 1013.3 1013.3 0.0
28/06:00pm 26.2 26.1 19.6 67 4.3 NNE 19 20 10 11 1013.0 1013.0 0.0
28/05:30pm 26.2 25.8 19.3 65 4.4 NE 20 20 11 11 1012.8 1012.8 0.0
28/05:00pm 26.2 25.6 18.9 64 4.7 NE 20 20 11 11 1012.9 1012.9 0.0
28/04:30pm 26.3 25.8 18.7 63 4.9 NE 19 20 10 11 1012.6 1012.6 0.0
28/04:00pm 26.8 26.6 17.6 57 5.8 E 15 19 8 10 1012.5 1012.5 0.0
28/03:30pm 26.7 27.2 19.3 64 4.8 ESE 15 19 8 10 1012.5 1012.5 0.0
28/03:00pm 26.7 27.2 19.3 64 4.8 ENE 15 20 8 11 1012.4 1012.4 0.0
28/02:30pm 26.2 26.3 19.1 65 4.6 NE 17 19 9 10 1012.7 1012.7 0.0
28/02:00pm 27.4 28.3 17.6 55 6.2 E 9 13 5 7 1013.0 1013.0 0.0
28/01:30pm 27.6 29.5 18.9 59 5.6 SSE 7 13 4 7 1013.2 1013.2 0.0
28/01:00pm 26.8 28.5 18.4 60 5.3 SSE 7 13 4 7 1013.4 1013.4 0.0
28/12:30pm 26.4 26.7 18.0 60 5.3 S 13 19 7 10 1013.7 1013.7 0.0
28/12:00pm 26.0 25.2 17.9 61 5.1 S 19 24 10 13 1014.2 1014.2 0.0
28/11:30am 26.2 25.1 17.3 58 5.6 S 19 24 10 13 1014.5 1014.5 0.0
28/11:00am 26.5 26.7 18.6 62 5.0 S 15 20 8 11 1014.9 1014.9 0.0
28/10:30am 26.3 26.7 18.2 61 5.1 S 13 17 7 9 1015.1 1015.1 0.0
28/10:00am 26.1 27.2 19.7 68 4.1 S 13 17 7 9 1015.2 1015.2 0.0
28/09:30am 26.0 26.2 20.1 70 3.8 S 19 24 10 13 1015.3 1015.3 0.0
28/09:00am 26.3 28.5 21.1 73 3.4 S 11 17 6 9 1015.3 1015.3 0.0
28/08:30am 25.8 29.0 22.3 81 2.3 S 9 13 5 7 1015.1 1015.1 0.0
28/08:00am 25.3 28.8 22.2 83 2.1 SSW 7 9 4 5 1014.9 1014.9 0.0
28/07:30am 25.1 29.0 22.6 86 1.7 S 6 7 3 4 1014.6 1014.6 0.0
28/07:00am 24.6 29.6 23.2 92 0.9 WSW 2 7 1 4 1014.3 1014.3 0.0
28/06:30am 24.4 27.7 23.2 93 0.8 SW 11 13 6 7 1013.8 1013.8 0.0
28/06:00am 24.6 28.3 23.2 92 0.9 SSW 9 11 5 6 1013.6 1013.6 0.0
28/05:30am 24.6 27.9 23.2 92 0.9 S 11 15 6 8 1013.3 1013.3 0.0
28/05:00am 24.6 28.0 23.4 93 0.8 SSW 11 13 6 7 1012.8 1012.8 0.0
28/04:30am 24.4 28.1 23.2 93 0.8 S 9 11 5 6 1012.4 1012.4 0.0
28/04:00am 24.5 28.7 23.1 92 0.9 SSW 6 7 3 4 1012.0 1012.0 0.0
28/03:30am 24.4 29.7 23.0 92 0.9 CALM 0 0 0 0 1011.7 1011.7 0.0
28/03:00am 24.5 29.1 23.1 92 0.9 SW 4 6 2 3 1011.6 1011.6 0.0
28/02:30am 24.6 28.7 23.2 92 0.9 SW 7 9 4 5 1011.6 1011.6 0.0
28/02:00am 24.7 28.5 23.5 93 0.8 SW 9 11 5 6 1011.7 1011.7 0.0
28/01:30am 24.8 29.9 23.4 92 1.0 WNW 2 7 1 4 1011.7 1011.7 0.0
28/01:00am 24.9 28.4 23.5 92 1.0 SW 11 13 6 7 1012.3 1012.3 0.0
28/12:30am 25.1 28.2 23.5 91 1.1 SW 13 15 7 8 1012.2 1012.2 0.0
28/12:00am 25.1 27.7 23.3 90 1.2 SW 15 17 8 9 1012.2 1012.2 0.0
 
Date/Time
EST
Temp
°C
App
Temp
°C
Dew
Point
Rel
Hum
%
Delta-T
°C
Wind Press
QNH
hPa
Press
MSL
hPa
Rain
since 9 am
mm
Dir
 
Spd
km/h
Gust
km/h
Spd
kts
Gust
kts
27/11:30pm 25.2 30.3 23.3 89 1.3 S 2 7 1 4 1012.3 1012.3 0.0
27/11:00pm 25.4 31.0 23.5 89 1.3 CALM 0 9 0 5 1012.4 1012.4 0.0
27/10:30pm 25.5 29.3 23.4 88 1.4 WSW 9 11 5 6 1012.5 1012.5 0.0
27/10:00pm 25.7 27.7 23.0 85 1.8 SW 17 20 9 11 1012.6 1012.6 0.0
27/09:30pm 25.9 25.4 23.9 89 1.4 NNW 33 39 18 21 1012.2 1012.2 0.0
27/09:00pm 25.9 26.3 23.8 88 1.4 NNW 28 33 15 18 1011.9 1011.9 0.0
27/08:30pm 26.0 26.4 23.7 87 1.6 NNW 28 33 15 18 1011.8 1011.8 0.0
27/08:00pm 26.0 26.5 23.3 85 1.8 NNW 26 32 14 17 1011.8 1011.8 0.0
27/07:30pm 26.0 27.3 23.3 85 1.8 N 22 30 12 16 1011.6 1011.6 0.0
27/07:00pm 26.1 26.2 23.2 84 2.0 NNW 28 33 15 18 1011.2 1011.2 0.0
27/06:30pm 26.1 25.6 23.8 87 1.6 NNW 33 39 18 21 1010.9 1010.9 0.0
27/06:00pm 26.1 23.9 23.6 86 1.7 NNW 41 48 22 26 1010.4 1010.4 0.0
27/05:30pm 26.2 24.8 23.7 86 1.7 NNW 37 46 20 25 1010.3 1010.3 0.0
27/05:00pm 26.3 25.4 23.8 86 1.7 NNW 35 46 19 25 1010.1 1010.1 0.0
27/04:30pm 26.3 25.6 23.6 85 1.8 N 33 43 18 23 1010.0 1010.0 0.0
27/04:00pm 26.3 25.2 23.4 84 2.0 N 35 43 19 23 1009.9 1009.9 0.0
27/03:30pm 26.2 25.3 23.1 83 2.1 N 33 39 18 21 1009.8 1009.8 0.0
27/03:00pm 26.1 25.0 22.8 82 2.2 NNW 33 41 18 22 1009.9 1009.9 0.0
27/02:30pm 26.1 25.3 23.0 83 2.1 N 32 37 17 20 1010.3 1010.3 0.0
27/02:00pm 26.0 25.8 22.7 82 2.2 N 28 35 15 19 1010.9 1010.9 0.0
27/01:30pm 26.1 25.7 22.4 80 2.5 N 28 33 15 18 1011.3 1011.3 0.0
27/01:00pm 26.3 26.2 22.2 78 2.8 N 26 32 14 17 1011.7 1011.7 0.0
27/12:30pm 26.7 27.5 22.5 78 2.8 NNW 22 28 12 15 1012.4 1012.4 0.0
27/12:00pm 26.7 26.4 22.5 78 2.8 NNW 28 32 15 17 1013.0 1013.0 0.0
27/11:30am 26.6 27.0 22.4 78 2.8 NNW 24 30 13 16 1013.5 1013.5 0.0
27/11:00am 27.1 27.9 21.8 73 3.5 NNW 20 30 11 16 1013.9 1013.9 0.0
27/10:30am 26.9 31.3 21.4 72 3.7 CALM 0 4 0 2 1014.3 1014.3 0.0
27/10:00am 25.6 30.1 21.5 78 2.7 CALM 0 0 0 0 1014.7 1014.7 0.0
27/09:30am 24.7 27.9 21.2 81 2.3 W 6 7 3 4 1014.8 1014.8 0.0
27/09:00am 24.8 28.0 21.7 83 2.1 W 7 11 4 6 1014.7 1014.7 0.2
27/08:30am 23.9 26.1 21.8 88 1.4 WSW 13 15 7 8 1014.6 1014.6 0.2
27/08:00am 23.5 25.9 21.6 89 1.3 WSW 11 13 6 7 1014.5 1014.5 0.2
27/07:30am 23.4 26.2 21.5 89 1.3 WSW 9 11 5 6 1014.2 1014.2 0.2
27/07:00am 23.4 26.2 21.5 89 1.3 WSW 9 11 5 6 1013.8 1013.8 0.2
27/06:30am 23.6 26.3 21.3 87 1.5 SW 9 11 5 6 1013.6 1013.6 0.2
27/06:00am 23.7 25.9 21.2 86 1.6 SW 11 13 6 7 1013.4 1013.4 0.2
27/05:30am 23.8 26.2 21.5 87 1.5 SW 11 13 6 7 1013.3 1013.3 0.2
27/05:00am 23.8 26.4 21.9 89 1.3 SW 11 13 6 7 1013.3 1013.3 0.2
27/04:30am 23.8 26.4 21.9 89 1.3 WSW 11 15 6 8 1013.3 1013.3 0.2
27/04:00am 23.7 26.0 21.4 87 1.5 WSW 11 13 6 7 1013.2 1013.2 0.2
27/03:30am 23.8 25.4 21.5 87 1.5 SW 15 17 8 9 1013.3 1013.3 0.2
27/03:00am 23.6 25.5 21.3 87 1.5 WSW 13 17 7 9 1013.0 1013.0 0.2
27/02:30am 23.6 26.1 21.7 89 1.3 W 11 13 6 7 1013.2 1013.2 0.2
27/02:00am 23.6 25.7 21.7 89 1.3 WSW 13 15 7 8 1013.4 1013.4 0.2
27/01:30am 23.8 25.8 21.5 87 1.5 WSW 13 15 7 8 1013.5 1013.5 0.2
27/01:00am 24.4 26.7 21.3 83 2.0 WSW 11 13 6 7 1013.6 1013.6 0.2
27/12:30am 24.5 27.4 21.0 81 2.3 W 7 9 4 5 1013.5 1013.5 0.2
27/12:00am 24.9 26.0 21.2 80 2.4 NW 17 22 9 12 1013.5 1013.5 0.2
 
Date/Time
EST
Temp
°C
App
Temp
°C
Dew
Point
Rel
Hum
%
Delta-T
°C
Wind Press
QNH
hPa
Press
MSL
hPa
Rain
since 9 am
mm
Dir
 
Spd
km/h
Gust
km/h
Spd
kts
Gust
kts
26/11:30pm 25.0 25.6 21.1 79 2.6 NNW 19 24 10 13 1013.6 1013.6 0.2
26/11:00pm 25.0 26.0 21.1 79 2.6 NNW 17 20 9 11 1013.6 1013.6 0.2
26/10:30pm 24.9 26.7 21.2 80 2.4 NW 13 17 7 9 1013.7 1013.7 0.2
26/10:00pm 25.2 26.5 20.9 77 2.8 NNW 15 19 8 10 1013.8 1013.8 0.2
26/09:30pm 25.3 26.6 20.8 76 3.0 NNW 15 15 8 8 1014.0 1014.0 0.2
26/09:00pm 25.3 26.6 20.8 76 3.0 NNW 15 17 8 9 1014.0 1014.0 0.2
26/08:30pm 25.3 26.6 20.8 76 3.0 NNW 15 17 8 9 1014.0 1014.0 0.2
26/08:00pm 25.3 26.2 20.8 76 3.0 NNW 17 20 9 11 1014.0 1014.0 0.2
26/07:30pm 25.6 26.0 19.9 70 3.7 N 17 20 9 11 1013.7 1013.7 0.2
26/07:00pm 25.6 26.6 20.2 72 3.5 N 15 20 8 11 1013.3 1013.3 0.2
26/06:30pm 25.6 26.2 20.2 72 3.5 N 17 20 9 11 1013.0 1013.0 0.2
26/06:00pm 25.6 25.7 19.9 70 3.7 N 19 20 10 11 1012.7 1012.7 0.2
26/05:30pm 25.8 26.0 20.1 71 3.7 NNE 19 22 10 12 1012.6 1012.6 0.2
26/05:00pm 26.0 26.1 19.9 69 4.0 NNE 19 22 10 12 1012.5 1012.5 0.2
26/04:30pm 26.0 26.8 19.9 69 4.0 NNE 15 20 8 11 1012.7 1012.7 0.2
26/04:00pm 25.9 26.0 20.0 70 3.8 NNE 19 20 10 11 1012.5 1012.5 0.2
26/03:30pm 25.5 25.7 20.1 72 3.5 NE 19 20 10 11 1012.8 1012.8 0.2
26/03:00pm 25.5 26.2 20.5 74 3.3 NE 17 19 9 10 1013.3 1013.3 0.2
26/02:30pm 26.1 28.4 20.7 72 3.5 ENE 9 13 5 7 1013.5 1013.5 0.2
26/02:00pm 26.8 29.8 21.3 72 3.7 SE 7 11 4 6 1013.8 1013.8 0.2

Other Formats:

Comma delimited format used in spreadsheet applications
http://www.bom.gov.au/fwo/IDQ60801/IDQ60801.94295.axf

JavaScript Object Notation format (JSON) in row-major order
http://www.bom.gov.au/fwo/IDQ60801/IDQ60801.94295.json